Terminal Aerodrome Forecast
Issued by NWS

Home | Current Version | Previous Version | Graphics & Text | Print | Product List | Glossary On
Versions: 1 2 3 4 5 6 7 8 9 10 11 12 13 14 15 16 17 18 19 20 21 22 23 24 25 26 27 28 29 30 31 32 33 34 35 36 37 38 39 40 41 42 43
987
FTUS43 KGRB 141141
TAFRHI
TAF
KRHI 141141Z 1412/1512 19006KT P6SM BKN150
     FM142200 16008KT P6SM -SN OVC035
      TEMPO 1422/1423 3SM -SN OVC025
     FM142300 16008KT 2SM -SN OVC020
     FM150000 14007KT 1 1/2SM -SN OVC012
     FM150800 09004KT 1SM -SN OVC008=

USA.gov is the U.S. government's official web portal to all federal, state and local government web resources and services.